createdAt,value
2023-01-11T04:41:42.097Z,3.90
2023-01-11T04:44:49.423Z,4.05
2023-01-11T04:47:56.848Z,4.12
2023-01-11T04:50:59.716Z,3.72
2023-01-11T04:54:02.650Z,4.70
2023-01-11T04:57:06.487Z,3.53
2023-01-11T05:00:10.877Z,4.90
2023-01-11T05:03:13.491Z,3.33
2023-01-11T05:06:16.209Z,4.20
2023-01-11T05:09:19.383Z,4.22
2023-01-11T05:12:21.921Z,3.58
2023-01-11T05:15:24.559Z,4.13
2023-01-11T05:18:26.903Z,3.92
2023-01-11T05:21:35.654Z,3.92
2023-01-11T05:24:38.063Z,3.67
2023-01-11T05:27:40.694Z,5.07
2023-01-11T05:30:43.447Z,4.15
2023-01-11T05:33:46.288Z,4.37
2023-01-11T05:36:48.773Z,3.53
2023-01-11T05:39:51.694Z,4.15
2023-01-11T05:42:54.597Z,4.30
2023-01-11T05:45:58.569Z,4.43
2023-01-11T05:52:03.737Z,4.30
2023-01-11T05:55:06.814Z,3.87
2023-01-11T05:58:09.657Z,6.30
2023-01-11T06:01:13.040Z,5.65
2023-01-11T06:04:15.860Z,5.05
2023-01-11T06:07:18.221Z,4.25
2023-01-11T06:10:21.540Z,4.50
2023-01-11T06:13:28.920Z,4.53
2023-01-11T06:16:31.929Z,4.32
2023-01-11T06:19:34.645Z,5.00
2023-01-11T06:22:37.458Z,4.70
2023-01-11T06:25:39.770Z,5.32
2023-01-11T06:28:43.313Z,4.25
2023-01-11T06:31:48.914Z,4.78
2023-01-11T06:34:51.510Z,5.15
2023-01-11T06:37:53.847Z,5.07
2023-01-11T06:41:01.372Z,4.28
2023-01-11T06:44:04.379Z,4.37
2023-01-11T06:47:07.239Z,5.63
2023-01-11T06:50:10.348Z,5.60
2023-01-11T06:56:18.926Z,4.53
2023-01-11T06:59:21.685Z,3.87
2023-01-11T07:02:24.807Z,4.55
2023-01-11T07:05:27.475Z,4.30
2023-01-11T07:08:30.271Z,5.95
2023-01-11T07:11:34.862Z,4.50
2023-01-11T07:14:37.751Z,5.78
2023-01-11T07:17:40.440Z,6.00
2023-01-11T07:20:43.247Z,5.30
2023-01-11T07:23:48.997Z,5.32
2023-01-11T07:26:52.590Z,5.72
2023-01-11T07:29:59.863Z,5.30
2023-01-11T07:33:04.235Z,9.30
2023-01-11T07:36:07.834Z,6.50
2023-01-11T07:39:10.226Z,8.10
2023-01-11T07:42:31.876Z,7.07
2023-01-11T07:45:45.453Z,6.47
2023-01-11T07:48:48.994Z,6.80
2023-01-11T07:51:52.193Z,5.62
2023-01-11T07:54:54.930Z,8.13
2023-01-11T07:57:57.617Z,7.78
2023-01-11T08:01:00.311Z,6.55
2023-01-11T08:04:04.251Z,7.10
2023-01-11T08:07:07.002Z,7.32
2023-01-11T08:10:10.287Z,8.00
2023-01-11T08:13:32.823Z,8.77
2023-01-11T08:16:35.538Z,6.97
2023-01-11T08:19:41.764Z,7.12
2023-01-11T08:22:44.579Z,7.93
2023-01-11T08:25:47.004Z,6.78
2023-01-11T08:28:49.905Z,7.75
2023-01-11T08:31:52.729Z,7.87
2023-01-11T08:34:55.543Z,6.95
2023-01-11T08:37:58.051Z,7.25
2023-01-11T08:41:10.668Z,8.00
2023-01-11T08:44:15.016Z,7.78
2023-01-11T08:47:17.935Z,7.32
2023-01-11T08:50:22.253Z,7.68
2023-01-11T08:53:25.913Z,12.15
2023-01-11T08:56:28.353Z,9.35
2023-01-11T08:59:31.307Z,8.68
2023-01-11T09:02:33.850Z,8.15
2023-01-11T09:05:37.883Z,8.52
2023-01-11T09:08:40.479Z,8.13
2023-01-11T09:11:56.786Z,7.87
2023-01-11T09:14:59.809Z,7.75
2023-01-11T09:18:03.189Z,7.37
2023-01-11T09:21:05.831Z,8.52
2023-01-11T09:24:08.762Z,9.90
2023-01-11T09:30:17.826Z,8.52
2023-01-11T09:33:21.439Z,6.68
2023-01-11T09:36:26.855Z,7.40
2023-01-11T09:39:29.665Z,6.53
2023-01-11T09:42:39.717Z,6.62
2023-01-11T09:45:46.762Z,6.15
2023-01-11T09:48:55.050Z,6.85
2023-01-11T09:52:13.605Z,4.68
2023-01-11T09:55:25.127Z,4.35
2023-01-11T09:58:54.958Z,4.35
2023-01-11T10:02:05.589Z,4.75
2023-01-11T10:05:18.565Z,5.62
2023-01-11T10:18:29.668Z,4.32
2023-01-11T10:20:01.268Z,3.75
2023-01-11T10:23:17.343Z,4.05
2023-01-11T10:26:30.966Z,3.08
2023-01-11T10:30:13.579Z,3.33
2023-01-11T10:33:38.126Z,2.03
2023-01-11T10:37:11.633Z,1.80
2023-01-11T10:40:28.462Z,1.77
2023-01-11T10:43:35.413Z,2.50
2023-01-11T10:46:44.497Z,2.47
2023-01-11T10:50:00.551Z,3.00
2023-01-11T10:53:29.269Z,2.25
2023-01-11T10:56:42.528Z,1.98
2023-01-11T11:00:22.587Z,2.22
2023-01-11T11:03:45.734Z,1.87
2023-01-11T11:06:51.323Z,2.37
2023-01-11T11:10:15.176Z,2.58
2023-01-11T11:13:26.647Z,2.55
2023-01-11T11:16:57.499Z,2.78
2023-01-11T11:20:00.721Z,3.05
2023-01-11T11:23:03.211Z,2.78
2023-01-11T11:26:07.354Z,3.25
2023-01-11T11:29:19.535Z,2.72
2023-01-11T11:32:36.742Z,3.25
2023-01-11T11:35:46.579Z,3.17
2023-01-11T11:39:09.970Z,3.35
2023-01-11T11:42:17.000Z,3.15
2023-01-11T11:45:19.821Z,3.42
2023-01-11T11:48:23.639Z,2.83
2023-01-11T11:51:27.745Z,4.70
2023-01-11T11:54:43.131Z,3.28
2023-01-11T11:57:47.829Z,3.37
2023-01-11T12:00:52.452Z,2.92
2023-01-11T12:04:02.683Z,2.53
2023-01-11T12:07:17.617Z,2.45
2023-01-11T12:10:23.749Z,3.10
2023-01-11T12:13:28.884Z,3.28
2023-01-11T12:16:36.471Z,3.28
2023-01-11T12:19:43.888Z,4.20
2023-01-11T12:22:47.395Z,3.75
2023-01-11T12:26:13.186Z,4.25
2023-01-11T12:29:28.383Z,4.10
2023-01-11T12:32:52.541Z,3.87
2023-01-11T12:36:04.038Z,3.75
2023-01-11T12:39:30.425Z,3.33
2023-01-11T12:42:48.823Z,3.55
2023-01-11T12:46:34.423Z,3.60
2023-01-11T12:49:43.118Z,3.28
2023-01-11T12:52:52.266Z,3.25
2023-01-11T12:56:20.292Z,2.70
2023-01-11T12:59:38.315Z,3.22
2023-01-11T13:03:05.859Z,2.60
2023-01-11T13:06:33.690Z,3.30
2023-01-11T13:09:45.895Z,2.90
2023-01-11T13:12:58.513Z,3.20
2023-01-11T13:16:24.647Z,3.15
2023-01-11T13:19:37.612Z,4.80
2023-01-11T13:22:46.978Z,4.35
2023-01-11T13:25:52.913Z,2.78
2023-01-11T13:29:25.513Z,3.33
2023-01-11T13:32:38.025Z,3.90
2023-01-11T13:36:15.092Z,4.10
2023-01-11T13:40:01.329Z,4.28
2023-01-11T13:43:13.386Z,4.32
2023-01-11T13:46:23.529Z,4.47
2023-01-11T13:49:41.179Z,5.40
2023-01-11T13:53:03.870Z,5.00
2023-01-11T13:56:15.909Z,4.28
2023-01-11T13:59:34.598Z,4.28
2023-01-11T14:02:46.603Z,4.90
2023-01-11T14:06:01.552Z,4.28
2023-01-11T14:09:25.774Z,4.85
2023-01-11T14:12:51.704Z,5.40
2023-01-11T14:16:03.754Z,6.75
2023-01-11T14:19:20.022Z,4.25
2023-01-11T14:22:34.897Z,4.78
2023-01-11T14:25:54.613Z,4.05
2023-01-11T14:29:25.641Z,5.05
2023-01-11T14:32:41.175Z,4.28
2023-01-11T14:35:57.680Z,4.57
2023-01-11T14:39:13.505Z,5.15
2023-01-11T14:42:44.460Z,4.20
2023-01-11T14:45:59.041Z,4.28
2023-01-11T14:49:32.572Z,4.20
2023-01-11T14:52:40.411Z,4.60
2023-01-11T14:55:45.178Z,4.90
2023-01-11T14:59:05.651Z,4.40
2023-01-11T15:02:11.037Z,4.87
2023-01-11T15:05:29.229Z,4.85
2023-01-11T15:08:45.782Z,4.55
2023-01-11T15:11:48.478Z,5.50
2023-01-11T15:15:01.033Z,3.85
2023-01-11T15:18:18.877Z,4.43
2023-01-11T15:21:24.967Z,4.95
2023-01-11T15:24:30.848Z,4.20
2023-01-11T15:27:39.317Z,5.45
2023-01-11T15:30:51.916Z,5.03
2023-01-11T15:33:55.773Z,6.60
2023-01-11T15:37:02.256Z,4.95
2023-01-11T15:40:21.247Z,5.47
2023-01-11T15:43:36.109Z,5.35
2023-01-11T15:47:01.376Z,4.72
2023-01-11T15:50:06.278Z,4.62
2023-01-11T15:53:33.662Z,4.82
2023-01-11T15:56:42.599Z,5.37
2023-01-11T16:00:21.598Z,5.10
2023-01-11T16:03:30.535Z,4.85
2023-01-11T16:06:36.129Z,5.28
2023-01-11T16:09:59.981Z,4.85
2023-01-11T16:13:21.288Z,6.40
2023-01-11T16:16:29.011Z,7.45
2023-01-11T16:19:33.751Z,7.70
2023-01-11T16:22:36.542Z,7.45
2023-01-11T16:25:41.416Z,6.65
2023-01-11T16:28:49.672Z,6.78
2023-01-11T16:31:53.852Z,8.00
2023-01-11T16:34:56.948Z,8.25
2023-01-11T16:38:02.585Z,7.78
2023-01-11T16:41:07.062Z,8.18
2023-01-11T16:44:33.231Z,8.57
2023-01-11T16:47:36.004Z,8.02
2023-01-11T16:50:41.909Z,9.02
